Relevés horaires Schaffen (Belgique)


Relevés horaires à Schaffen - Mardi 26 Nov. 2019
Heure UTC1 Température [°C] Vent [km/h] Hum. [%] Pres.4 [hPa] Visi. [Km] Nébu. [octa] Préc.5 [mm] Cond.
2m. Res. Ros. Dir.2 Vit. Moy. Raf.3
23:00 9.8 9.4 8.6 SSE 5.6 -- 9.3 92 996.7(-2.3/3h) 20 -- -- --
22:00 10.0 9.6 8.7 SSE 5.6 -- 9.3 92 997.5(-2.3/3h) 20 -- -- --
21:00 10.1 9.7 8.8 S 5.6 -- 14.8 92 998.2(-2.3/3h) 20 -- -- --
20:00 10.5 9.7 9.1 S 7.4 -- 14.8 91 999(-1.6/3h) 20 -- -- --
19:00 11.0 10.3 9.4 S 7.4 -- 14.8 90 999.8(-1.2/3h) 20 -- -- --
18:00 10.6 9.8 9.2 S 7.4 -- 16.7 91 1000.6(-0.5/3h) 20 -- 0.2/12h
NA
17:00 10.6 9.8 9.3 S 7.4 -- 13.0 92 1000.7(-0.9/3h) 20 -- -- NA
16:00 10.3 9.5 9.6 S 7.4 -- 16.7 95 1001(-0.9/3h) 15 -- -- Il y a de la pluie faible et continue à la station au moment de l'observation
15:00 11.3 10.3 8.7 S 9.3 -- 16.7 84 1001.1(-1.5/3h) 19 -- -- --
14:00 11.6 10.7 8.1 S 9.3 -- 16.7 79 1001.6(-2.0/3h) 20 -- -- --
13:00 11.8 10.9 7.7 S 9.3 -- 14.8 76 1002(-2.0/3h) 20 -- -- --
12:00 11.6 11 8.5 S 7.4 -- 14.8 81 1002.7(-1.3/3h) 20 -- -- NA
11:00 11.3 10.7 9.3 S 7.4 -- 13.0 87 1003.6(-0.3/3h) 20 -- -- --
10:00 11.0 10.3 9.3 S 7.4 -- 14.8 89 1004(-0.1/3h) 16 -- -- --
09:00 10.3 9.9 8.7 S 5.6 -- 11.1 90 1004.1(-0.4/3h) 20 -- -- --
08:00 10.0 9.1 8.4 S 7.4 -- 11.1 90 1004.1(-0.7/3h) 20 -- -- --
07:00 9.1 9.1 8.0 S 3.7 -- 7.4 93 1004.2(-1.0/3h) 20 -- -- --
06:00 9.1 9.1 8.0 S 3.7 -- 11.1 93 1004.5(-0.9/3h) 20 -- 0.1/12h
NA
05:00 9.0 8.4 7.8 S 5.6 -- 11.1 92 1004.8(-1.0/3h) 20 -- -- --
04:00 9.1 8.6 7.7 S 5.6 -- 11.1 91 1005.2(-0.9/3h) 20 -- -- --
03:00 8.9 8.3 7.6 S 5.6 -- 11.1 92 1005.3(-1.4/3h) 20 -- -- NA
02:00 8.6 8 7.2 S 5.6 -- 9.3 91 1005.8(-1.3/3h) 20 -- -- --
01:00 7.6 6.8 6.4 S 5.6 -- 9.3 92 1006.2(-0.8/3h) 19 -- -- NA
00:00 6.9 6.9 5.7 SSE 3.7 -- 7.4 92 1006.8(-0.7/3h) 13 -- 0.1/6h
Il y a de la pluie faible et continue à la station au moment de l'observation

1 Coordinated Universal Time. Actuellement il est 16:00 locale et 14:00 UTC.

2 Le vent souffle depuis la direction indiquée vers la direction oposée.

3 Les rafales max. sont disponible 40 min après l'heure du relevé.

4 Pour les stations d'altitude (plus de 600m) le géopotentiel du niveau le plus proche de la pression obligatoire est indiqué.

5 Les stations disposant d'un diffuseur peuvent indiquer "trace". Cela signifie que des précipitations ont touchés le sol mais que la quantité est inférieure à 0.1 mm.

Récapitulatif de la journée
Température [°C] Vent [km/h] Ensoleillement4 [h] Precipitations totale5 [mm] Pression [Hpa]
Min1 Max.2 Moy.3 Max. Min Max.
6.2 12.0 0 16.7 0 h 0 min 0 996.7 1006.8

1 Température minimale relevée entre 18:00 UTC la veille et 18:00 UTC le jour donné.

2 Température maximale relevée entre 06:00 UTC le jour donné et 06:00 UTC le lendemain.

3 Vent moyen de la journée basé sur les relevés horaires.

4 Ensoleillement en heures relevé entre 06:00 UTC la veille et 06:00 UTC le jour donné.

5 Précipitations totales tombées entre 06:00 UTC la jour donné et 06:00 UTC le lendemain.

Graphiques horaires